createdAt,value
2022-08-17T00:00:01.224Z,25.30
2022-08-17T00:02:28.473Z,25.30
2022-08-17T00:04:58.345Z,25.30
2022-08-17T00:07:25.505Z,25.30
2022-08-17T00:09:52.698Z,25.30
2022-08-17T00:12:43.380Z,25.30
2022-08-17T00:15:10.550Z,25.30
2022-08-17T00:17:38.528Z,25.30
2022-08-17T00:20:08.461Z,25.30
2022-08-17T00:22:36.680Z,25.30
2022-08-17T00:25:07.379Z,25.20
2022-08-17T00:27:37.023Z,25.20
2022-08-17T00:30:08.771Z,25.10
2022-08-17T00:33:12.322Z,25.10
2022-08-17T00:35:34.706Z,25.10
2022-08-17T00:38:01.969Z,25.10
2022-08-17T00:40:39.862Z,25.10
2022-08-17T00:43:19.864Z,25.10
2022-08-17T00:45:47.785Z,25.10
2022-08-17T00:48:29.864Z,25.10
2022-08-17T00:51:03.184Z,25.10
2022-08-17T00:53:33.869Z,25.10
2022-08-17T00:56:04.661Z,25.10
2022-08-17T00:58:36.321Z,25.00
2022-08-17T01:01:06.944Z,25.00
2022-08-17T01:03:37.342Z,25.00
2022-08-17T01:06:06.301Z,24.90
2022-08-17T01:08:34.268Z,24.90
2022-08-17T01:11:02.556Z,24.90
2022-08-17T01:13:40.749Z,24.80
2022-08-17T01:16:26.524Z,24.70
2022-08-17T01:18:57.169Z,24.80
2022-08-17T01:21:24.878Z,24.70
2022-08-17T01:23:52.192Z,24.70
2022-08-17T01:26:20.199Z,24.60
2022-08-17T01:28:54.223Z,24.60
2022-08-17T01:31:24.950Z,24.60
2022-08-17T01:33:55.119Z,24.50
2022-08-17T01:36:22.528Z,24.40
2022-08-17T01:38:49.937Z,24.40
2022-08-17T01:41:18.237Z,24.40
2022-08-17T01:44:01.933Z,24.40
2022-08-17T01:46:33.743Z,24.30
2022-08-17T01:49:01.765Z,24.20
2022-08-17T01:51:32.958Z,24.20
2022-08-17T01:54:05.493Z,24.20
2022-08-17T01:56:35.472Z,24.10
2022-08-17T01:59:03.038Z,24.10
2022-08-17T02:01:32.401Z,24.10
2022-08-17T02:04:01.554Z,24.00
2022-08-17T02:06:31.236Z,24.00
2022-08-17T02:09:02.519Z,23.90
2022-08-17T02:11:33.555Z,23.90
2022-08-17T02:14:04.128Z,23.90
2022-08-17T02:16:37.055Z,23.90
2022-08-17T02:19:08.483Z,23.80
2022-08-17T02:21:37.509Z,23.80
2022-08-17T02:24:08.524Z,23.80
2022-08-17T02:26:35.825Z,23.70
2022-08-17T02:29:04.303Z,23.70
2022-08-17T02:31:31.571Z,23.70
2022-08-17T02:34:03.522Z,23.60
2022-08-17T02:36:34.876Z,23.60
2022-08-17T02:39:07.042Z,23.60
2022-08-17T02:41:34.341Z,23.60
2022-08-17T02:44:01.648Z,23.60
2022-08-17T02:46:29.188Z,23.60
2022-08-17T02:48:56.279Z,23.50
2022-08-17T02:51:23.460Z,23.50
2022-08-17T02:53:50.965Z,23.50
2022-08-17T02:56:18.243Z,23.50
2022-08-17T02:58:46.354Z,23.50
2022-08-17T03:01:15.245Z,23.50
2022-08-17T03:03:42.752Z,23.50
2022-08-17T03:06:10.072Z,23.40
2022-08-17T03:08:38.408Z,23.40
2022-08-17T03:11:05.639Z,23.40
2022-08-17T03:13:32.928Z,23.30
2022-08-17T03:16:00.144Z,23.30
2022-08-17T03:18:28.112Z,23.30
2022-08-17T03:20:58.856Z,23.30
2022-08-17T03:23:27.496Z,23.30
2022-08-17T03:25:57.034Z,23.30
2022-08-17T03:28:25.044Z,23.20
2022-08-17T03:30:52.763Z,23.20
2022-08-17T03:33:20.279Z,23.20
2022-08-17T03:35:48.394Z,23.20
2022-08-17T03:38:17.427Z,23.20
2022-08-17T03:40:58.440Z,23.10
2022-08-17T03:43:29.688Z,23.10
2022-08-17T03:46:28.611Z,23.10
2022-08-17T03:49:23.409Z,23.10
2022-08-17T03:52:09.393Z,23.10
2022-08-17T03:54:55.394Z,23.10
2022-08-17T03:57:22.635Z,23.00
2022-08-17T03:59:50.104Z,23.00
2022-08-17T04:02:29.908Z,23.00
2022-08-17T04:04:58.185Z,23.00
2022-08-17T04:07:28.111Z,22.90
2022-08-17T04:09:58.300Z,23.00
2022-08-17T04:12:26.546Z,23.00
2022-08-17T04:14:54.930Z,23.00
2022-08-17T04:17:27.197Z,23.00
2022-08-17T04:19:56.967Z,23.10
2022-08-17T04:22:32.844Z,23.10
2022-08-17T04:25:04.992Z,23.10
2022-08-17T04:27:32.372Z,23.20
2022-08-17T04:29:59.668Z,23.20
2022-08-17T04:33:04.182Z,23.30
2022-08-17T04:35:18.989Z,23.30
2022-08-17T04:37:46.136Z,23.40
2022-08-17T04:40:31.928Z,23.40
2022-08-17T04:43:07.392Z,23.40
2022-08-17T04:45:40.152Z,23.40
2022-08-17T04:48:35.306Z,23.50
2022-08-17T04:51:16.128Z,23.50
2022-08-17T04:53:46.304Z,23.50
2022-08-17T04:56:21.561Z,23.50
2022-08-17T04:58:50.906Z,23.60
2022-08-17T05:01:23.803Z,23.60
2022-08-17T05:03:53.771Z,23.70
2022-08-17T05:06:21.192Z,23.80
2022-08-17T05:08:48.556Z,23.90
2022-08-17T05:11:15.975Z,24.00
2022-08-17T05:13:43.528Z,24.10
2022-08-17T05:16:11.296Z,24.10
2022-08-17T05:18:39.264Z,24.20
2022-08-17T05:21:06.988Z,24.30
2022-08-17T05:23:38.525Z,24.40
2022-08-17T05:26:26.534Z,24.50
2022-08-17T05:29:00.312Z,24.50
2022-08-17T05:31:29.621Z,24.60
2022-08-17T05:33:56.823Z,24.70
2022-08-17T05:36:42.014Z,24.80
2022-08-17T05:39:16.309Z,24.80
2022-08-17T05:41:48.270Z,24.90
2022-08-17T05:44:16.288Z,24.90
2022-08-17T05:46:48.825Z,25.00
2022-08-17T05:49:21.673Z,25.10
2022-08-17T05:51:58.953Z,25.10
2022-08-17T05:54:44.643Z,25.20
2022-08-17T05:57:53.661Z,25.20
2022-08-17T06:00:30.528Z,25.30
2022-08-17T06:03:15.455Z,25.40
2022-08-17T06:06:10.026Z,25.50
2022-08-17T06:09:09.705Z,25.60
2022-08-17T06:11:45.689Z,25.70
2022-08-17T06:15:03.836Z,25.70
2022-08-17T06:17:31.661Z,25.80
2022-08-17T06:20:11.563Z,25.90
2022-08-17T06:22:46.164Z,26.00
2022-08-17T06:25:34.626Z,26.10
2022-08-17T06:28:08.945Z,26.10
2022-08-17T06:30:59.698Z,26.20
2022-08-17T06:33:35.301Z,26.30
2022-08-17T06:36:28.537Z,26.40
2022-08-17T06:39:04.702Z,26.50
2022-08-17T06:42:05.668Z,26.50
2022-08-17T06:44:47.608Z,26.60
2022-08-17T06:47:41.959Z,26.80
2022-08-17T06:50:20.761Z,26.80
2022-08-17T06:53:05.600Z,26.90
2022-08-17T06:55:46.649Z,27.00
2022-08-17T06:58:19.283Z,27.10
2022-08-17T07:00:48.719Z,27.20
2022-08-17T07:03:30.181Z,27.20
2022-08-17T07:06:02.877Z,27.30
2022-08-17T07:08:49.926Z,27.30
2022-08-17T07:11:22.709Z,27.40
2022-08-17T07:14:08.209Z,27.50
2022-08-17T07:16:46.533Z,27.50
2022-08-17T07:19:19.903Z,27.60
2022-08-17T07:22:04.354Z,27.70
2022-08-17T07:25:04.299Z,27.80
2022-08-17T07:27:51.352Z,27.80
2022-08-17T07:30:30.009Z,27.90
2022-08-17T07:33:01.115Z,28.00
2022-08-17T07:35:40.673Z,28.10
2022-08-17T07:38:29.788Z,28.20
2022-08-17T07:41:15.669Z,28.30
2022-08-17T07:43:43.063Z,28.40
2022-08-17T07:46:42.500Z,28.50
2022-08-17T07:49:15.270Z,28.50
2022-08-17T07:52:47.710Z,28.60
2022-08-17T07:54:53.331Z,28.60
2022-08-17T07:57:25.394Z,28.80
2022-08-17T08:00:26.643Z,28.80
2022-08-17T08:03:17.449Z,28.90
2022-08-17T08:05:56.872Z,29.00
2022-08-17T08:08:29.988Z,29.10
2022-08-17T08:11:06.318Z,29.20
2022-08-17T08:13:34.656Z,29.20
2022-08-17T08:16:21.240Z,29.30
2022-08-17T08:18:56.845Z,29.40
2022-08-17T08:21:39.531Z,29.40
2022-08-17T08:24:30.029Z,29.40
2022-08-17T08:27:24.407Z,29.50
2022-08-17T08:30:14.445Z,29.60
2022-08-17T08:33:23.279Z,29.60
2022-08-17T08:36:03.439Z,29.70
2022-08-17T08:38:53.578Z,29.80
2022-08-17T08:41:56.402Z,29.90
2022-08-17T08:45:04.061Z,30.00
2022-08-17T08:47:58.142Z,30.10
2022-08-17T08:50:44.365Z,30.10
2022-08-17T08:53:37.261Z,30.20
2022-08-17T08:56:06.118Z,30.20
2022-08-17T08:58:56.434Z,30.30
2022-08-17T09:01:42.458Z,30.30
2022-08-17T09:04:40.698Z,30.40
2022-08-17T09:07:44.147Z,30.40
2022-08-17T09:10:30.162Z,30.60
2022-08-17T09:13:36.017Z,30.60
2022-08-17T09:16:33.284Z,30.70
2022-08-17T09:19:17.056Z,30.80
2022-08-17T09:21:54.737Z,30.80
2022-08-17T09:24:37.372Z,30.90
2022-08-17T09:27:11.712Z,30.90
2022-08-17T09:29:49.942Z,31.00
2022-08-17T09:32:28.976Z,31.00
2022-08-17T09:35:10.475Z,31.10
2022-08-17T09:38:20.412Z,31.20
2022-08-17T09:41:07.097Z,31.20
2022-08-17T09:43:38.828Z,31.30
2022-08-17T09:46:38.743Z,31.40
2022-08-17T09:49:33.469Z,31.40
2022-08-17T09:52:09.991Z,31.40
2022-08-17T09:54:41.151Z,31.50
2022-08-17T09:57:31.981Z,31.50
2022-08-17T10:00:25.643Z,31.60
2022-08-17T10:03:18.038Z,31.70
2022-08-17T10:06:13.409Z,31.70
2022-08-17T10:09:13.209Z,31.80
2022-08-17T10:12:17.339Z,31.80
2022-08-17T10:15:08.084Z,31.80
2022-08-17T10:18:07.552Z,31.90
2022-08-17T10:21:23.929Z,32.00
2022-08-17T10:24:28.487Z,32.10
2022-08-17T10:26:59.252Z,32.20
2022-08-17T10:29:48.444Z,32.30
2022-08-17T10:32:26.882Z,32.40
2022-08-17T10:35:12.651Z,32.40
2022-08-17T10:38:08.759Z,32.50
2022-08-17T10:40:50.776Z,32.50
2022-08-17T10:43:23.643Z,32.50
2022-08-17T10:46:29.941Z,32.60
2022-08-17T10:49:17.051Z,32.60
2022-08-17T10:51:48.664Z,32.70
2022-08-17T10:54:24.937Z,32.80
2022-08-17T10:56:57.749Z,32.80
2022-08-17T10:59:51.059Z,32.90
2022-08-17T11:02:48.660Z,32.90
2022-08-17T11:05:44.418Z,32.90
2022-08-17T11:08:47.773Z,33.10
2022-08-17T11:11:36.724Z,33.10
2022-08-17T11:14:25.601Z,33.10
2022-08-17T11:17:12.305Z,33.20
2022-08-17T11:19:51.542Z,33.20
2022-08-17T11:22:34.745Z,33.30
2022-08-17T11:25:22.725Z,33.40
2022-08-17T11:28:04.336Z,33.50
2022-08-17T11:31:07.568Z,33.60
2022-08-17T11:33:36.764Z,33.70
2022-08-17T11:36:29.887Z,33.80
2022-08-17T11:39:23.327Z,33.90
2022-08-17T11:42:11.918Z,34.10
2022-08-17T11:44:57.132Z,34.20
2022-08-17T11:48:29.055Z,34.30
2022-08-17T11:51:24.385Z,34.40
2022-08-17T11:54:03.593Z,34.40
2022-08-17T11:56:51.095Z,34.50
2022-08-17T11:59:34.066Z,34.40
2022-08-17T12:02:35.411Z,34.40
2022-08-17T12:05:14.487Z,34.40
2022-08-17T12:07:58.636Z,34.40
2022-08-17T12:10:32.759Z,34.40
2022-08-17T12:13:11.032Z,34.40
2022-08-17T12:15:52.409Z,34.40
2022-08-17T12:18:35.801Z,34.40
2022-08-17T12:21:27.621Z,34.40
2022-08-17T12:24:23.330Z,34.40
2022-08-17T12:27:01.365Z,34.40
2022-08-17T12:29:35.901Z,34.40
2022-08-17T12:32:14.500Z,34.30
2022-08-17T12:34:46.614Z,34.30
2022-08-17T12:37:25.085Z,34.30
2022-08-17T12:40:02.257Z,34.40
2022-08-17T12:42:37.382Z,34.30
2022-08-17T12:45:20.577Z,34.30
2022-08-17T12:47:48.325Z,34.40
2022-08-17T12:50:29.074Z,34.40
2022-08-17T12:53:02.512Z,34.30
2022-08-17T12:55:37.326Z,34.30
2022-08-17T12:58:08.962Z,34.30
2022-08-17T13:00:48.681Z,34.20
2022-08-17T13:03:28.051Z,34.30
2022-08-17T13:06:06.546Z,34.20
2022-08-17T13:08:38.449Z,34.20
2022-08-17T13:11:22.409Z,34.10
2022-08-17T13:13:56.108Z,34.10
2022-08-17T13:16:33.661Z,34.10
2022-08-17T13:19:18.906Z,34.10
2022-08-17T13:22:13.329Z,34.20
2022-08-17T13:24:55.678Z,34.20
2022-08-17T13:27:27.712Z,34.20
2022-08-17T13:30:00.078Z,34.20
2022-08-17T13:32:48.316Z,34.10
2022-08-17T13:35:39.732Z,34.20
2022-08-17T13:38:35.992Z,34.20
2022-08-17T13:41:04.141Z,34.20
2022-08-17T13:43:48.828Z,34.20
2022-08-17T13:46:25.049Z,34.30
2022-08-17T13:49:12.113Z,34.30
2022-08-17T13:51:46.765Z,34.30
2022-08-17T13:54:36.897Z,34.20
2022-08-17T13:57:26.115Z,34.10
2022-08-17T14:00:15.950Z,34.10
2022-08-17T14:02:43.398Z,34.10
2022-08-17T14:05:11.052Z,34.00
2022-08-17T14:07:40.924Z,34.00
2022-08-17T14:10:27.892Z,34.00
2022-08-17T14:12:56.873Z,34.00
2022-08-17T14:15:55.581Z,34.00
2022-08-17T14:18:14.335Z,34.00
2022-08-17T14:20:42.834Z,34.00
2022-08-17T14:23:11.942Z,34.00
2022-08-17T14:25:40.282Z,34.00
2022-08-17T14:28:07.872Z,34.00
2022-08-17T14:30:35.791Z,34.00
2022-08-17T14:33:03.065Z,34.00
2022-08-17T14:35:31.568Z,34.00
2022-08-17T14:37:58.976Z,33.90
2022-08-17T14:40:29.093Z,33.90
2022-08-17T14:42:58.061Z,33.90
2022-08-17T14:45:32.325Z,33.90
2022-08-17T14:48:04.565Z,33.90
2022-08-17T14:50:36.206Z,33.90
2022-08-17T14:53:07.521Z,33.90
2022-08-17T14:55:36.276Z,33.80
2022-08-17T14:58:04.202Z,33.80
2022-08-17T15:00:33.814Z,33.70
2022-08-17T15:03:02.160Z,33.70
2022-08-17T15:05:35.240Z,33.70
2022-08-17T15:08:05.559Z,33.60
2022-08-17T15:10:33.521Z,33.60
2022-08-17T15:13:01.517Z,33.50
2022-08-17T15:15:30.100Z,33.50
2022-08-17T15:17:58.417Z,33.50
2022-08-17T15:20:32.662Z,33.50
2022-08-17T15:23:00.149Z,33.40
2022-08-17T15:25:31.870Z,33.40
2022-08-17T15:28:00.993Z,33.40
2022-08-17T15:30:29.234Z,33.30
2022-08-17T15:32:59.454Z,33.30
2022-08-17T15:35:32.534Z,33.20
2022-08-17T15:38:10.684Z,33.20
2022-08-17T15:40:44.364Z,33.20
2022-08-17T15:43:27.395Z,33.20
2022-08-17T15:46:10.044Z,33.20
2022-08-17T15:48:43.444Z,33.20
2022-08-17T15:51:31.487Z,33.20
2022-08-17T15:54:19.149Z,33.20
2022-08-17T15:56:50.897Z,33.20
2022-08-17T15:59:19.505Z,33.20
2022-08-17T16:03:06.182Z,33.40
2022-08-17T16:04:36.458Z,33.40
2022-08-17T16:07:08.932Z,33.70
2022-08-17T16:09:36.315Z,34.10
2022-08-17T16:12:14.649Z,34.70
2022-08-17T16:14:42.423Z,35.30
2022-08-17T16:17:39.113Z,35.70
2022-08-17T16:20:00.789Z,36.20
2022-08-17T16:22:34.275Z,36.50
2022-08-17T16:25:12.085Z,36.70
2022-08-17T16:27:39.426Z,36.50
2022-08-17T16:30:11.399Z,36.30
2022-08-17T16:32:41.509Z,36.00
2022-08-17T16:35:17.814Z,35.50
2022-08-17T16:37:45.801Z,35.00
2022-08-17T16:40:15.600Z,34.60
2022-08-17T16:42:43.422Z,34.30
2022-08-17T16:45:22.034Z,33.90
2022-08-17T16:47:51.577Z,33.70
2022-08-17T16:50:23.812Z,33.40
2022-08-17T16:52:51.611Z,33.30
2022-08-17T16:55:22.671Z,33.10
2022-08-17T16:57:50.782Z,33.00
2022-08-17T17:00:21.041Z,32.80
2022-08-17T17:02:49.792Z,32.70
2022-08-17T17:05:55.290Z,32.50
2022-08-17T17:08:46.802Z,32.40
2022-08-17T17:11:54.798Z,32.20
2022-08-17T17:14:32.948Z,32.10
2022-08-17T17:17:03.924Z,31.90
2022-08-17T17:19:45.717Z,31.80
2022-08-17T17:22:23.857Z,31.70
2022-08-17T17:25:12.619Z,31.60
2022-08-17T17:28:25.849Z,31.50
2022-08-17T17:31:23.920Z,31.30
2022-08-17T17:34:00.593Z,31.10
2022-08-17T17:36:43.593Z,31.00
2022-08-17T17:39:23.175Z,30.90
2022-08-17T17:41:58.197Z,30.90
2022-08-17T17:44:36.196Z,30.70
2022-08-17T17:47:04.338Z,30.70
2022-08-17T17:49:38.256Z,30.50
2022-08-17T17:52:51.200Z,30.50
2022-08-17T17:55:44.518Z,30.30
2022-08-17T17:58:33.480Z,30.20
2022-08-17T18:01:09.808Z,30.10
2022-08-17T18:04:31.297Z,30.00
2022-08-17T18:07:26.664Z,30.00
2022-08-17T18:10:30.015Z,29.90
2022-08-17T18:13:20.255Z,29.70
2022-08-17T18:15:54.473Z,29.70
2022-08-17T18:18:45.757Z,29.60
2022-08-17T18:21:23.568Z,29.50
2022-08-17T18:24:00.108Z,29.40
2022-08-17T18:26:36.730Z,29.40
2022-08-17T18:29:48.282Z,29.20
2022-08-17T18:32:38.330Z,29.20
2022-08-17T18:35:14.468Z,29.10
2022-08-17T18:38:20.359Z,29.00
2022-08-17T18:41:03.814Z,29.00
2022-08-17T18:44:05.340Z,28.90
2022-08-17T18:46:37.690Z,28.80
2022-08-17T18:49:26.806Z,28.80
2022-08-17T18:52:13.255Z,28.70
2022-08-17T18:54:41.177Z,28.70
2022-08-17T18:57:12.359Z,28.60
2022-08-17T18:59:48.358Z,28.60
2022-08-17T19:02:36.078Z,28.50
2022-08-17T19:05:31.489Z,28.50
2022-08-17T19:08:31.273Z,28.40
2022-08-17T19:11:32.744Z,28.30
2022-08-17T19:14:10.617Z,28.30
2022-08-17T19:16:52.450Z,28.20
2022-08-17T19:19:30.674Z,28.20
2022-08-17T19:22:29.018Z,28.10
2022-08-17T19:25:24.779Z,28.10
2022-08-17T19:28:22.363Z,28.00
2022-08-17T19:31:08.228Z,28.00
2022-08-17T19:33:37.570Z,27.90
2022-08-17T19:36:23.930Z,27.90
2022-08-17T19:39:16.419Z,27.90
2022-08-17T19:42:11.931Z,27.80
2022-08-17T19:45:27.527Z,27.70
2022-08-17T19:48:32.178Z,27.70
2022-08-17T19:51:06.360Z,27.60
2022-08-17T19:54:06.581Z,27.60
2022-08-17T19:56:55.775Z,27.50
2022-08-17T20:00:10.428Z,27.50
2022-08-17T20:03:08.958Z,27.50
2022-08-17T20:06:11.573Z,27.40
2022-08-17T20:08:55.340Z,27.40
2022-08-17T20:11:48.842Z,27.30
2022-08-17T20:14:53.943Z,27.30
2022-08-17T20:17:37.759Z,27.50
2022-08-17T20:20:47.001Z,27.70
2022-08-17T20:23:29.669Z,27.90
2022-08-17T20:26:19.432Z,28.00
2022-08-17T20:29:13.854Z,28.10
2022-08-17T20:32:14.727Z,28.10
2022-08-17T20:34:47.749Z,28.20
2022-08-17T20:37:15.024Z,28.20
2022-08-17T20:39:52.688Z,28.20
2022-08-17T20:42:22.885Z,28.20
2022-08-17T20:44:58.653Z,28.20
2022-08-17T20:47:29.848Z,28.20
2022-08-17T20:50:11.157Z,28.20
2022-08-17T20:52:50.906Z,28.20
2022-08-17T20:55:51.953Z,28.20
2022-08-17T20:58:30.656Z,28.20
2022-08-17T21:01:01.576Z,28.20
2022-08-17T21:03:47.993Z,28.10
2022-08-17T21:06:21.053Z,28.10
2022-08-17T21:08:53.941Z,28.10
2022-08-17T21:12:02.384Z,28.10
2022-08-17T21:15:00.552Z,28.10
2022-08-17T21:18:18.759Z,28.00
2022-08-17T21:21:17.719Z,28.00
2022-08-17T21:24:03.351Z,28.00
2022-08-17T21:27:04.603Z,28.00
2022-08-17T21:29:33.944Z,28.00
2022-08-17T21:32:09.508Z,27.90
2022-08-17T21:34:47.023Z,27.90
2022-08-17T21:37:20.798Z,27.90
2022-08-17T21:40:18.725Z,27.90
2022-08-17T21:42:58.293Z,27.90
2022-08-17T21:45:38.441Z,27.90
2022-08-17T21:48:21.445Z,27.80
2022-08-17T21:51:15.414Z,27.80
2022-08-17T21:53:43.755Z,27.80
2022-08-17T21:56:41.656Z,27.70
2022-08-17T21:59:27.609Z,27.70
2022-08-17T22:02:25.305Z,27.60
2022-08-17T22:05:13.006Z,27.60
2022-08-17T22:08:03.832Z,27.60
2022-08-17T22:10:33.441Z,27.50
2022-08-17T22:13:19.702Z,27.50
2022-08-17T22:16:27.864Z,27.50
2022-08-17T22:18:59.143Z,27.50
2022-08-17T22:21:27.050Z,27.40
2022-08-17T22:24:22.696Z,27.40
2022-08-17T22:27:07.728Z,27.40
2022-08-17T22:29:45.544Z,27.40
2022-08-17T22:32:49.508Z,27.30
2022-08-17T22:35:27.037Z,27.30
2022-08-17T22:37:57.595Z,27.30
2022-08-17T22:40:34.553Z,27.20
2022-08-17T22:43:04.132Z,27.20
2022-08-17T22:45:33.471Z,27.20
2022-08-17T22:48:02.153Z,27.10
2022-08-17T22:50:33.221Z,27.10
2022-08-17T22:53:41.244Z,27.10
2022-08-17T22:56:41.264Z,27.00
2022-08-17T22:59:22.543Z,27.00
2022-08-17T23:02:31.404Z,27.00
2022-08-17T23:05:13.013Z,27.00
2022-08-17T23:07:42.396Z,27.00
2022-08-17T23:10:13.626Z,26.90
2022-08-17T23:12:41.062Z,26.90
2022-08-17T23:15:17.226Z,26.90
2022-08-17T23:17:45.419Z,26.90
2022-08-17T23:20:15.576Z,26.90
2022-08-17T23:22:51.302Z,26.90
2022-08-17T23:25:32.456Z,26.90
2022-08-17T23:28:01.963Z,26.90
2022-08-17T23:30:37.296Z,26.90
2022-08-17T23:33:09.383Z,26.90
2022-08-17T23:35:40.335Z,26.90
2022-08-17T23:38:12.798Z,26.90
2022-08-17T23:40:41.074Z,26.90
2022-08-17T23:43:25.489Z,26.80
2022-08-17T23:45:59.722Z,26.90
2022-08-17T23:48:32.482Z,26.90
2022-08-17T23:51:15.590Z,26.80
2022-08-17T23:53:50.128Z,26.80
2022-08-17T23:56:23.951Z,26.90
2022-08-17T23:58:52.881Z,26.90
